Historique des mesures à Cassis (13260), France
Quotidien Résumé Juin 3, 2017 Unités:  Métrique    US   Métrique/US
« Précédent (Jour)
Suivant (Jour) »
Quotidien Hebdomadaire Mensuel Annuel Période au choix
  Maximum: Minimum: Moyenne:
Température: TemperatureC °C 18.5 °C 22.2 °C
Point de rosée: DewpointC °C 15.2 °C 16.9 °C
Humidité: Humidity % 60 % 69 %
Vitesse du vent: 0 km/h 0 km/h 3.5 km/h
Rafales: 0 km/h - -
Vent:- - South
Pression: PressurehPa hPa 1011.1 hPa -
Précipitations: 0.0 mm    
Historical Graphs
 
 
Mesures pour : Juin 3, 2017
Heure Temperature Point de rosée Pression Vent Vitesse du vent Rafales Humidité Pluie (par heure) Conditions
TemperatureC °C DewpointC °C PressurehPa hPa Calm     Humidity % HourlyPrecipMM mm SoftwareType W/m2
00:10 20.1 °C 15.7 °C 1013.4 hPa Calm     76 % 0.0 mm open2300-1.11 W/m2
01:10 19.8 °C 15.7 °C 1013.1 hPa Calm     77 % 0.0 mm open2300-1.11 W/m2
02:10 19.4 °C 15.7 °C 1013.1 hPa NNE 4.2 km/h 4.2 km/h 79 % 0.0 mm open2300-1.11 W/m2
03:10 19.1 °C 15.6 °C 1012.8 hPa Calm     80 % 0.0 mm open2300-1.11 W/m2
04:10 18.8 °C 15.5 °C 1012.4 hPa Calm     81 % 0.0 mm open2300-1.11 W/m2
05:10 18.8 °C 15.5 °C 1012.8 hPa Calm   3.4 km/h 81 % 0.0 mm open2300-1.11 W/m2
06:10 18.5 °C 15.2 °C 1012.4 hPa Calm   2.9 km/h 81 % 0.0 mm open2300-1.11 W/m2
07:10 18.8 °C 15.3 °C 1012.8 hPa NNW 8 km/h 8 km/h 80 % 0.0 mm open2300-1.11 W/m2
08:10 21.5 °C 17.3 °C 1012.8 hPa Calm     77 % 0.0 mm open2300-1.11 W/m2
09:11 21.9 °C 17.2 °C 1012.8 hPa SE 1.8 km/h 5.1 km/h 75 % 0.0 mm open2300-1.11 W/m2
10:10 24.1 °C 19.2 °C 1012.8 hPa SE 6.9 km/h 12.7 km/h 74 % 0.0 mm open2300-1.11 W/m2
11:10 27.1 °C 19.4 °C 1012.8 hPa South 6.4 km/h 6.4 km/h 63 % 0.0 mm open2300-1.11 W/m2
12:10 28.1 °C 19.8 °C 1012.8 hPa South 8.9 km/h 9.3 km/h 61 % 0.0 mm open2300-1.11 W/m2
13:11 27.8 °C 19.3 °C 1012.8 hPa SW 7.6 km/h 9.8 km/h 60 % 0.0 mm open2300-1.11 W/m2
14:10 27.1 °C 19.4 °C 1012.8 hPa SE 10.3 km/h 10.3 km/h 63 % 0.0 mm open2300-1.11 W/m2
15:10 27.9 °C 19.9 °C 1012.1 hPa Calm   9.3 km/h 62 % 0.0 mm open2300-1.11 W/m2
16:10 27.5 °C 19.3 °C 1011.7 hPa SSE 2.3 km/h 10.9 km/h 61 % 0.0 mm open2300-1.11 W/m2
17:10 26.5 °C 19.1 °C 1011.7 hPa South 5.1 km/h 13.2 km/h 64 % 0.0 mm open2300-1.11 W/m2
18:10 25.6 °C 18.8 °C 1011.7 hPa South 6.9 km/h 6.9 km/h 66 % 0.0 mm open2300-1.11 W/m2
19:10 24.9 °C 18.8 °C 1011.1 hPa SW 8 km/h 9.3 km/h 69 % 0.0 mm open2300-1.11 W/m2
20:10 24.2 °C 18.6 °C 1011.1 hPa West 4.7 km/h 7.6 km/h 71 % 0.0 mm open2300-1.11 W/m2
21:10 23.6 °C 18.3 °C 1011.4 hPa SSE 4.7 km/h 5.1 km/h 72 % 0.0 mm open2300-1.11 W/m2
22:10 22.6 °C 16.7 °C 1011.7 hPa Calm   2.3 km/h 69 % 0.0 mm open2300-1.11 W/m2
23:11 21.7 °C 16.0 °C 1012.1 hPa NNE 2.3 km/h 2.3 km/h 70 % 0.0 mm open2300-1.11 W/m2
Observations météo à CASSIS
WU-History script by Weather Underground - 1 mb